sensor_id;sensor_type;location;lat;lon;timestamp;P1;durP1;ratioP1;P2;durP2;ratioP2
485;SDS011;229;48.734;9.340;2023-02-26T00:00:00;6.50;;;4.55;;
485;SDS011;229;48.734;9.340;2023-02-26T00:02:32;8.43;;;5.05;;
485;SDS011;229;48.734;9.340;2023-02-26T00:04:59;4.68;;;4.40;;
485;SDS011;229;48.734;9.340;2023-02-26T00:07:26;5.80;;;4.30;;
485;SDS011;229;48.734;9.340;2023-02-26T00:09:54;6.88;;;4.25;;
485;SDS011;229;48.734;9.340;2023-02-26T00:12:21;7.00;;;4.20;;
485;SDS011;229;48.734;9.340;2023-02-26T00:14:49;7.68;;;4.38;;
485;SDS011;229;48.734;9.340;2023-02-26T00:17:27;7.28;;;5.05;;
485;SDS011;229;48.734;9.340;2023-02-26T00:19:56;7.20;;;4.30;;
485;SDS011;229;48.734;9.340;2023-02-26T00:22:23;5.90;;;4.60;;
485;SDS011;229;48.734;9.340;2023-02-26T00:24:50;5.35;;;4.40;;
485;SDS011;229;48.734;9.340;2023-02-26T00:27:18;7.10;;;4.13;;
485;SDS011;229;48.734;9.340;2023-02-26T00:29:45;6.60;;;4.25;;
485;SDS011;229;48.734;9.340;2023-02-26T00:32:13;6.32;;;4.60;;
485;SDS011;229;48.734;9.340;2023-02-26T00:34:44;5.43;;;4.20;;
485;SDS011;229;48.734;9.340;2023-02-26T00:37:14;6.80;;;5.20;;
485;SDS011;229;48.734;9.340;2023-02-26T00:39:45;7.70;;;4.75;;
485;SDS011;229;48.734;9.340;2023-02-26T00:42:13;6.80;;;4.68;;
485;SDS011;229;48.734;9.340;2023-02-26T00:44:41;7.47;;;4.63;;
485;SDS011;229;48.734;9.340;2023-02-26T00:47:09;7.47;;;4.20;;
485;SDS011;229;48.734;9.340;2023-02-26T00:49:45;5.43;;;4.32;;
485;SDS011;229;48.734;9.340;2023-02-26T00:52:13;7.55;;;4.53;;
485;SDS011;229;48.734;9.340;2023-02-26T00:54:41;7.45;;;4.95;;
485;SDS011;229;48.734;9.340;2023-02-26T00:57:08;6.00;;;4.63;;
485;SDS011;229;48.734;9.340;2023-02-26T00:59:35;9.82;;;4.70;;
485;SDS011;229;48.734;9.340;2023-02-26T01:02:02;4.82;;;4.20;;
485;SDS011;229;48.734;9.340;2023-02-26T01:04:30;6.32;;;4.78;;
485;SDS011;229;48.734;9.340;2023-02-26T01:06:59;6.57;;;4.63;;
485;SDS011;229;48.734;9.340;2023-02-26T01:09:27;7.40;;;4.65;;
485;SDS011;229;48.734;9.340;2023-02-26T01:11:55;7.95;;;4.70;;
485;SDS011;229;48.734;9.340;2023-02-26T01:14:23;9.02;;;4.53;;
485;SDS011;229;48.734;9.340;2023-02-26T01:16:52;5.32;;;4.20;;
485;SDS011;229;48.734;9.340;2023-02-26T01:19:23;5.80;;;4.70;;
485;SDS011;229;48.734;9.340;2023-02-26T01:21:54;5.72;;;4.70;;
485;SDS011;229;48.734;9.340;2023-02-26T01:24:23;8.50;;;4.32;;
485;SDS011;229;48.734;9.340;2023-02-26T01:26:51;6.10;;;4.95;;
485;SDS011;229;48.734;9.340;2023-02-26T01:29:18;6.18;;;4.80;;
485;SDS011;229;48.734;9.340;2023-02-26T01:31:48;7.15;;;4.90;;
485;SDS011;229;48.734;9.340;2023-02-26T01:34:17;6.45;;;4.85;;
485;SDS011;229;48.734;9.340;2023-02-26T01:36:46;7.22;;;4.95;;
485;SDS011;229;48.734;9.340;2023-02-26T01:39:18;8.10;;;5.10;;
485;SDS011;229;48.734;9.340;2023-02-26T01:41:51;7.40;;;4.43;;
485;SDS011;229;48.734;9.340;2023-02-26T01:44:21;6.80;;;4.70;;
485;SDS011;229;48.734;9.340;2023-02-26T01:46:55;6.10;;;4.75;;
485;SDS011;229;48.734;9.340;2023-02-26T01:49:26;5.70;;;4.50;;
485;SDS011;229;48.734;9.340;2023-02-26T01:51:54;7.10;;;5.05;;
485;SDS011;229;48.734;9.340;2023-02-26T01:54:23;6.30;;;4.80;;
485;SDS011;229;48.734;9.340;2023-02-26T01:56:52;5.30;;;4.78;;
485;SDS011;229;48.734;9.340;2023-02-26T01:59:22;6.68;;;4.40;;
485;SDS011;229;48.734;9.340;2023-02-26T02:01:49;6.05;;;4.93;;
485;SDS011;229;48.734;9.340;2023-02-26T02:04:17;8.50;;;5.25;;
485;SDS011;229;48.734;9.340;2023-02-26T02:06:45;6.18;;;4.65;;
485;SDS011;229;48.734;9.340;2023-02-26T02:09:13;5.50;;;4.90;;
485;SDS011;229;48.734;9.340;2023-02-26T02:11:45;6.15;;;5.53;;
485;SDS011;229;48.734;9.340;2023-02-26T02:14:17;5.80;;;5.00;;
485;SDS011;229;48.734;9.340;2023-02-26T02:16:47;5.07;;;4.78;;
485;SDS011;229;48.734;9.340;2023-02-26T02:19:23;5.90;;;4.93;;
485;SDS011;229;48.734;9.340;2023-02-26T02:21:53;5.93;;;4.85;;
485;SDS011;229;48.734;9.340;2023-02-26T02:24:30;6.05;;;4.60;;
485;SDS011;229;48.734;9.340;2023-02-26T02:27:02;6.07;;;5.13;;
485;SDS011;229;48.734;9.340;2023-02-26T02:32:14;7.40;;;4.65;;
485;SDS011;229;48.734;9.340;2023-02-26T02:34:44;4.85;;;4.60;;
485;SDS011;229;48.734;9.340;2023-02-26T02:37:13;9.30;;;5.82;;
485;SDS011;229;48.734;9.340;2023-02-26T02:39:43;8.18;;;5.32;;
485;SDS011;229;48.734;9.340;2023-02-26T02:42:16;5.40;;;5.10;;
485;SDS011;229;48.734;9.340;2023-02-26T02:44:47;6.75;;;5.18;;
485;SDS011;229;48.734;9.340;2023-02-26T02:47:17;6.88;;;5.20;;
485;SDS011;229;48.734;9.340;2023-02-26T02:49:46;6.95;;;4.80;;
485;SDS011;229;48.734;9.340;2023-02-26T02:52:14;8.35;;;4.90;;
485;SDS011;229;48.734;9.340;2023-02-26T02:54:43;6.00;;;4.97;;
485;SDS011;229;48.734;9.340;2023-02-26T02:57:14;6.15;;;4.68;;
485;SDS011;229;48.734;9.340;2023-02-26T02:59:43;6.20;;;4.78;;
485;SDS011;229;48.734;9.340;2023-02-26T03:02:12;9.77;;;4.63;;
485;SDS011;229;48.734;9.340;2023-02-26T03:04:41;8.52;;;4.90;;
485;SDS011;229;48.734;9.340;2023-02-26T03:07:08;9.63;;;5.47;;
485;SDS011;229;48.734;9.340;2023-02-26T03:09:35;5.30;;;5.00;;
485;SDS011;229;48.734;9.340;2023-02-26T03:12:03;6.78;;;5.82;;
485;SDS011;229;48.734;9.340;2023-02-26T03:14:30;5.47;;;5.00;;
485;SDS011;229;48.734;9.340;2023-02-26T03:17:04;5.97;;;4.90;;
485;SDS011;229;48.734;9.340;2023-02-26T03:19:35;5.25;;;4.70;;
485;SDS011;229;48.734;9.340;2023-02-26T03:22:08;6.00;;;4.43;;
485;SDS011;229;48.734;9.340;2023-02-26T03:24:39;5.72;;;5.35;;
485;SDS011;229;48.734;9.340;2023-02-26T03:27:12;6.90;;;5.20;;
485;SDS011;229;48.734;9.340;2023-02-26T03:29:45;7.75;;;5.65;;
485;SDS011;229;48.734;9.340;2023-02-26T03:32:13;6.82;;;5.38;;
485;SDS011;229;48.734;9.340;2023-02-26T03:34:42;6.57;;;5.13;;
485;SDS011;229;48.734;9.340;2023-02-26T03:37:14;6.40;;;5.30;;
485;SDS011;229;48.734;9.340;2023-02-26T03:39:44;10.30;;;6.00;;
485;SDS011;229;48.734;9.340;2023-02-26T03:42:14;9.90;;;5.70;;
485;SDS011;229;48.734;9.340;2023-02-26T03:44:43;8.25;;;6.00;;
485;SDS011;229;48.734;9.340;2023-02-26T03:47:13;6.93;;;5.43;;
485;SDS011;229;48.734;9.340;2023-02-26T03:49:41;8.27;;;5.70;;
485;SDS011;229;48.734;9.340;2023-02-26T03:52:10;8.60;;;5.85;;
485;SDS011;229;48.734;9.340;2023-02-26T03:54:40;6.15;;;5.43;;
485;SDS011;229;48.734;9.340;2023-02-26T03:57:08;10.13;;;6.35;;
485;SDS011;229;48.734;9.340;2023-02-26T03:59:35;7.35;;;5.43;;
485;SDS011;229;48.734;9.340;2023-02-26T04:02:03;7.07;;;5.70;;
485;SDS011;229;48.734;9.340;2023-02-26T04:04:32;8.10;;;5.80;;
485;SDS011;229;48.734;9.340;2023-02-26T04:07:00;7.60;;;5.40;;
485;SDS011;229;48.734;9.340;2023-02-26T04:09:28;6.20;;;4.82;;
485;SDS011;229;48.734;9.340;2023-02-26T04:11:56;10.30;;;5.43;;
485;SDS011;229;48.734;9.340;2023-02-26T04:14:24;6.85;;;5.95;;
485;SDS011;229;48.734;9.340;2023-02-26T04:16:51;9.07;;;5.43;;
485;SDS011;229;48.734;9.340;2023-02-26T04:19:18;6.10;;;5.70;;
485;SDS011;229;48.734;9.340;2023-02-26T04:21:45;7.22;;;5.90;;
485;SDS011;229;48.734;9.340;2023-02-26T04:24:13;7.68;;;6.35;;
485;SDS011;229;48.734;9.340;2023-02-26T04:26:40;9.52;;;6.47;;
485;SDS011;229;48.734;9.340;2023-02-26T04:29:08;8.73;;;6.10;;
485;SDS011;229;48.734;9.340;2023-02-26T04:31:35;7.10;;;5.95;;
485;SDS011;229;48.734;9.340;2023-02-26T04:34:03;7.30;;;5.40;;
485;SDS011;229;48.734;9.340;2023-02-26T04:36:30;7.80;;;5.30;;
485;SDS011;229;48.734;9.340;2023-02-26T04:38:57;6.15;;;5.15;;
485;SDS011;229;48.734;9.340;2023-02-26T04:41:24;8.80;;;5.60;;
485;SDS011;229;48.734;9.340;2023-02-26T04:43:51;8.07;;;5.47;;
485;SDS011;229;48.734;9.340;2023-02-26T04:46:20;5.00;;;4.70;;
485;SDS011;229;48.734;9.340;2023-02-26T04:48:47;6.22;;;4.93;;
485;SDS011;229;48.734;9.340;2023-02-26T04:51:15;7.50;;;5.30;;
485;SDS011;229;48.734;9.340;2023-02-26T04:53:42;6.93;;;5.30;;
485;SDS011;229;48.734;9.340;2023-02-26T04:56:09;10.38;;;5.20;;
485;SDS011;229;48.734;9.340;2023-02-26T04:58:36;5.35;;;5.05;;
485;SDS011;229;48.734;9.340;2023-02-26T05:01:03;6.47;;;4.90;;
485;SDS011;229;48.734;9.340;2023-02-26T05:03:32;8.77;;;5.40;;
485;SDS011;229;48.734;9.340;2023-02-26T05:05:59;8.70;;;4.80;;
485;SDS011;229;48.734;9.340;2023-02-26T05:08:27;6.82;;;4.55;;
485;SDS011;229;48.734;9.340;2023-02-26T05:10:54;5.57;;;4.75;;
485;SDS011;229;48.734;9.340;2023-02-26T05:13:21;5.97;;;4.82;;
485;SDS011;229;48.734;9.340;2023-02-26T05:15:48;6.35;;;4.53;;
485;SDS011;229;48.734;9.340;2023-02-26T05:18:15;5.63;;;4.50;;
485;SDS011;229;48.734;9.340;2023-02-26T05:20:44;5.22;;;4.90;;
485;SDS011;229;48.734;9.340;2023-02-26T05:23:11;5.15;;;4.78;;
485;SDS011;229;48.734;9.340;2023-02-26T05:25:38;6.95;;;4.85;;
485;SDS011;229;48.734;9.340;2023-02-26T05:28:05;6.95;;;5.40;;
485;SDS011;229;48.734;9.340;2023-02-26T05:30:32;6.13;;;5.25;;
485;SDS011;229;48.734;9.340;2023-02-26T05:33:00;6.70;;;5.20;;
485;SDS011;229;48.734;9.340;2023-02-26T05:35:27;6.45;;;5.20;;
485;SDS011;229;48.734;9.340;2023-02-26T05:37:55;6.25;;;5.18;;
485;SDS011;229;48.734;9.340;2023-02-26T05:40:23;9.27;;;6.65;;
485;SDS011;229;48.734;9.340;2023-02-26T05:42:51;9.20;;;5.43;;
485;SDS011;229;48.734;9.340;2023-02-26T05:45:18;11.13;;;6.40;;
485;SDS011;229;48.734;9.340;2023-02-26T05:47:45;12.38;;;7.60;;
485;SDS011;229;48.734;9.340;2023-02-26T05:50:12;8.50;;;6.30;;
485;SDS011;229;48.734;9.340;2023-02-26T05:52:40;7.13;;;6.28;;
485;SDS011;229;48.734;9.340;2023-02-26T05:55:09;9.15;;;6.70;;
485;SDS011;229;48.734;9.340;2023-02-26T05:57:36;10.45;;;6.82;;
485;SDS011;229;48.734;9.340;2023-02-26T06:00:03;7.55;;;5.80;;
485;SDS011;229;48.734;9.340;2023-02-26T06:02:31;7.82;;;5.88;;
485;SDS011;229;48.734;9.340;2023-02-26T06:04:58;5.93;;;5.15;;
485;SDS011;229;48.734;9.340;2023-02-26T06:07:25;8.85;;;5.50;;
485;SDS011;229;48.734;9.340;2023-02-26T06:09:52;7.43;;;5.60;;
485;SDS011;229;48.734;9.340;2023-02-26T06:12:21;13.32;;;5.13;;
485;SDS011;229;48.734;9.340;2023-02-26T06:14:48;5.85;;;5.35;;
485;SDS011;229;48.734;9.340;2023-02-26T06:17:15;8.05;;;5.30;;
485;SDS011;229;48.734;9.340;2023-02-26T06:19:43;5.90;;;5.60;;
485;SDS011;229;48.734;9.340;2023-02-26T06:22:10;9.48;;;5.57;;
485;SDS011;229;48.734;9.340;2023-02-26T06:24:37;8.95;;;5.50;;
485;SDS011;229;48.734;9.340;2023-02-26T06:27:04;8.80;;;5.53;;
485;SDS011;229;48.734;9.340;2023-02-26T06:29:33;5.32;;;5.03;;
485;SDS011;229;48.734;9.340;2023-02-26T06:32:01;6.50;;;5.50;;
485;SDS011;229;48.734;9.340;2023-02-26T06:34:28;7.05;;;5.72;;
485;SDS011;229;48.734;9.340;2023-02-26T06:36:56;5.68;;;4.90;;
485;SDS011;229;48.734;9.340;2023-02-26T06:39:23;7.32;;;5.97;;
485;SDS011;229;48.734;9.340;2023-02-26T06:41:50;7.15;;;5.50;;
485;SDS011;229;48.734;9.340;2023-02-26T06:44:17;6.40;;;5.50;;
485;SDS011;229;48.734;9.340;2023-02-26T06:46:46;6.28;;;5.80;;
485;SDS011;229;48.734;9.340;2023-02-26T06:49:13;7.32;;;5.78;;
485;SDS011;229;48.734;9.340;2023-02-26T06:51:40;6.32;;;5.47;;
485;SDS011;229;48.734;9.340;2023-02-26T06:54:07;5.72;;;5.45;;
485;SDS011;229;48.734;9.340;2023-02-26T06:56:35;7.90;;;5.88;;
485;SDS011;229;48.734;9.340;2023-02-26T06:59:02;7.25;;;5.82;;
485;SDS011;229;48.734;9.340;2023-02-26T07:01:29;11.75;;;6.30;;
485;SDS011;229;48.734;9.340;2023-02-26T07:03:58;7.05;;;5.40;;
485;SDS011;229;48.734;9.340;2023-02-26T07:06:25;8.85;;;6.07;;
485;SDS011;229;48.734;9.340;2023-02-26T07:08:52;6.22;;;5.53;;
485;SDS011;229;48.734;9.340;2023-02-26T07:11:20;7.22;;;6.00;;
485;SDS011;229;48.734;9.340;2023-02-26T07:13:47;7.15;;;6.25;;
485;SDS011;229;48.734;9.340;2023-02-26T07:16:15;7.07;;;5.80;;
485;SDS011;229;48.734;9.340;2023-02-26T07:18:42;6.95;;;6.18;;
485;SDS011;229;48.734;9.340;2023-02-26T07:21:11;7.35;;;5.40;;
485;SDS011;229;48.734;9.340;2023-02-26T07:23:38;8.82;;;5.72;;
485;SDS011;229;48.734;9.340;2023-02-26T07:26:05;8.57;;;6.05;;
485;SDS011;229;48.734;9.340;2023-02-26T07:28:33;11.65;;;6.25;;
485;SDS011;229;48.734;9.340;2023-02-26T07:31:00;14.18;;;5.60;;
485;SDS011;229;48.734;9.340;2023-02-26T07:33:27;9.05;;;6.07;;
485;SDS011;229;48.734;9.340;2023-02-26T07:35:55;5.90;;;4.63;;
485;SDS011;229;48.734;9.340;2023-02-26T07:38:24;7.22;;;5.20;;
485;SDS011;229;48.734;9.340;2023-02-26T07:40:53;12.07;;;6.10;;
485;SDS011;229;48.734;9.340;2023-02-26T07:43:20;9.25;;;5.10;;
485;SDS011;229;48.734;9.340;2023-02-26T07:45:48;8.02;;;5.60;;
485;SDS011;229;48.734;9.340;2023-02-26T07:48:15;10.38;;;5.63;;
485;SDS011;229;48.734;9.340;2023-02-26T07:50:42;6.60;;;5.15;;
485;SDS011;229;48.734;9.340;2023-02-26T07:53:10;7.03;;;5.07;;
485;SDS011;229;48.734;9.340;2023-02-26T07:55:38;6.45;;;4.80;;
485;SDS011;229;48.734;9.340;2023-02-26T07:58:05;7.03;;;4.90;;
485;SDS011;229;48.734;9.340;2023-02-26T08:00:33;8.40;;;5.13;;
485;SDS011;229;48.734;9.340;2023-02-26T08:03:00;8.32;;;4.45;;
485;SDS011;229;48.734;9.340;2023-02-26T08:05:27;9.45;;;5.63;;
485;SDS011;229;48.734;9.340;2023-02-26T08:07:54;8.05;;;5.15;;
485;SDS011;229;48.734;9.340;2023-02-26T08:10:21;9.35;;;5.00;;
485;SDS011;229;48.734;9.340;2023-02-26T08:12:50;8.85;;;5.45;;
485;SDS011;229;48.734;9.340;2023-02-26T08:15:17;10.90;;;5.18;;
485;SDS011;229;48.734;9.340;2023-02-26T08:17:44;6.78;;;4.63;;
485;SDS011;229;48.734;9.340;2023-02-26T08:20:12;6.63;;;4.20;;
485;SDS011;229;48.734;9.340;2023-02-26T08:22:40;4.93;;;4.30;;
485;SDS011;229;48.734;9.340;2023-02-26T08:25:07;11.85;;;5.03;;
485;SDS011;229;48.734;9.340;2023-02-26T08:27:35;7.38;;;4.93;;
485;SDS011;229;48.734;9.340;2023-02-26T08:30:04;7.75;;;4.88;;
485;SDS011;229;48.734;9.340;2023-02-26T08:32:32;6.18;;;4.70;;
485;SDS011;229;48.734;9.340;2023-02-26T08:34:59;5.05;;;4.55;;
485;SDS011;229;48.734;9.340;2023-02-26T08:37:26;5.03;;;4.45;;
485;SDS011;229;48.734;9.340;2023-02-26T08:39:54;7.10;;;4.82;;
485;SDS011;229;48.734;9.340;2023-02-26T08:42:21;7.43;;;4.40;;
485;SDS011;229;48.734;9.340;2023-02-26T08:44:48;10.70;;;5.20;;
485;SDS011;229;48.734;9.340;2023-02-26T08:47:17;7.40;;;4.30;;
485;SDS011;229;48.734;9.340;2023-02-26T08:49:44;6.15;;;4.00;;
485;SDS011;229;48.734;9.340;2023-02-26T08:52:11;5.40;;;4.25;;
485;SDS011;229;48.734;9.340;2023-02-26T08:54:39;7.00;;;4.95;;
485;SDS011;229;48.734;9.340;2023-02-26T08:57:06;6.97;;;5.10;;
485;SDS011;229;48.734;9.340;2023-02-26T08:59:33;7.38;;;5.10;;
485;SDS011;229;48.734;9.340;2023-02-26T09:02:00;6.32;;;4.60;;
485;SDS011;229;48.734;9.340;2023-02-26T09:04:29;6.43;;;4.80;;
485;SDS011;229;48.734;9.340;2023-02-26T09:06:56;8.43;;;5.43;;
485;SDS011;229;48.734;9.340;2023-02-26T09:09:23;6.32;;;4.20;;
485;SDS011;229;48.734;9.340;2023-02-26T09:11:51;4.65;;;4.00;;
485;SDS011;229;48.734;9.340;2023-02-26T09:14:18;8.13;;;4.97;;
485;SDS011;229;48.734;9.340;2023-02-26T09:16:45;7.97;;;5.90;;
485;SDS011;229;48.734;9.340;2023-02-26T09:19:12;7.90;;;4.40;;
485;SDS011;229;48.734;9.340;2023-02-26T09:21:41;5.10;;;4.35;;
485;SDS011;229;48.734;9.340;2023-02-26T09:24:08;6.95;;;4.22;;
485;SDS011;229;48.734;9.340;2023-02-26T09:26:35;5.25;;;4.95;;
485;SDS011;229;48.734;9.340;2023-02-26T09:29:03;8.90;;;5.50;;
485;SDS011;229;48.734;9.340;2023-02-26T09:31:30;6.38;;;5.50;;
485;SDS011;229;48.734;9.340;2023-02-26T09:33:57;6.97;;;4.60;;
485;SDS011;229;48.734;9.340;2023-02-26T09:36:25;6.00;;;4.35;;
485;SDS011;229;48.734;9.340;2023-02-26T09:38:53;7.80;;;4.60;;
485;SDS011;229;48.734;9.340;2023-02-26T09:41:21;6.43;;;4.55;;
485;SDS011;229;48.734;9.340;2023-02-26T09:43:55;7.40;;;4.25;;
485;SDS011;229;48.734;9.340;2023-02-26T09:46:30;5.13;;;4.28;;
485;SDS011;229;48.734;9.340;2023-02-26T09:49:01;5.47;;;3.72;;
485;SDS011;229;48.734;9.340;2023-02-26T09:51:29;7.88;;;4.28;;
485;SDS011;229;48.734;9.340;2023-02-26T09:54:00;7.40;;;5.18;;
485;SDS011;229;48.734;9.340;2023-02-26T09:56:28;4.85;;;3.80;;
485;SDS011;229;48.734;9.340;2023-02-26T09:59:00;6.60;;;4.20;;
485;SDS011;229;48.734;9.340;2023-02-26T10:01:28;5.15;;;3.83;;
485;SDS011;229;48.734;9.340;2023-02-26T10:03:59;8.70;;;4.20;;
485;SDS011;229;48.734;9.340;2023-02-26T10:06:29;4.50;;;3.97;;
485;SDS011;229;48.734;9.340;2023-02-26T10:09:20;4.25;;;3.97;;
485;SDS011;229;48.734;9.340;2023-02-26T10:11:50;5.53;;;3.80;;
485;SDS011;229;48.734;9.340;2023-02-26T10:14:21;5.20;;;3.65;;
485;SDS011;229;48.734;9.340;2023-02-26T10:16:50;6.45;;;3.75;;
485;SDS011;229;48.734;9.340;2023-02-26T10:19:18;4.30;;;3.60;;
485;SDS011;229;48.734;9.340;2023-02-26T10:21:47;4.13;;;3.55;;
485;SDS011;229;48.734;9.340;2023-02-26T10:24:18;3.90;;;3.70;;
485;SDS011;229;48.734;9.340;2023-02-26T10:26:49;4.10;;;3.75;;
485;SDS011;229;48.734;9.340;2023-02-26T10:29:19;6.22;;;3.80;;
485;SDS011;229;48.734;9.340;2023-02-26T10:31:51;4.35;;;3.65;;
485;SDS011;229;48.734;9.340;2023-02-26T10:34:23;5.63;;;3.88;;
485;SDS011;229;48.734;9.340;2023-02-26T10:36:52;4.07;;;3.80;;
485;SDS011;229;48.734;9.340;2023-02-26T10:39:26;3.85;;;3.55;;
485;SDS011;229;48.734;9.340;2023-02-26T10:41:54;8.15;;;3.70;;
485;SDS011;229;48.734;9.340;2023-02-26T10:44:24;3.88;;;3.72;;
485;SDS011;229;48.734;9.340;2023-02-26T10:46:55;4.93;;;3.63;;
485;SDS011;229;48.734;9.340;2023-02-26T10:49:36;4.45;;;3.80;;
485;SDS011;229;48.734;9.340;2023-02-26T10:52:10;6.43;;;4.20;;
485;SDS011;229;48.734;9.340;2023-02-26T10:54:39;4.65;;;4.35;;
485;SDS011;229;48.734;9.340;2023-02-26T10:57:09;4.75;;;4.13;;
485;SDS011;229;48.734;9.340;2023-02-26T10:59:41;5.35;;;3.88;;
485;SDS011;229;48.734;9.340;2023-02-26T11:02:12;4.43;;;4.13;;
485;SDS011;229;48.734;9.340;2023-02-26T11:04:44;4.38;;;4.15;;
485;SDS011;229;48.734;9.340;2023-02-26T11:07:11;4.60;;;4.30;;
485;SDS011;229;48.734;9.340;2023-02-26T11:09:43;5.18;;;4.70;;
485;SDS011;229;48.734;9.340;2023-02-26T11:12:12;6.47;;;4.40;;
485;SDS011;229;48.734;9.340;2023-02-26T11:14:39;5.50;;;3.53;;
485;SDS011;229;48.734;9.340;2023-02-26T11:17:09;5.35;;;4.13;;
485;SDS011;229;48.734;9.340;2023-02-26T11:19:38;4.22;;;3.38;;
485;SDS011;229;48.734;9.340;2023-02-26T11:22:06;4.00;;;3.80;;
485;SDS011;229;48.734;9.340;2023-02-26T11:24:35;3.83;;;3.63;;
485;SDS011;229;48.734;9.340;2023-02-26T11:27:07;7.68;;;3.55;;
485;SDS011;229;48.734;9.340;2023-02-26T11:29:38;5.00;;;4.20;;
485;SDS011;229;48.734;9.340;2023-02-26T11:32:06;3.83;;;3.60;;
485;SDS011;229;48.734;9.340;2023-02-26T11:34:39;3.50;;;3.30;;
485;SDS011;229;48.734;9.340;2023-02-26T11:37:11;3.83;;;3.63;;
485;SDS011;229;48.734;9.340;2023-02-26T11:39:39;4.82;;;3.58;;
485;SDS011;229;48.734;9.340;2023-02-26T11:42:09;4.57;;;3.22;;
485;SDS011;229;48.734;9.340;2023-02-26T11:44:37;3.88;;;3.67;;
485;SDS011;229;48.734;9.340;2023-02-26T11:47:06;4.45;;;4.15;;
485;SDS011;229;48.734;9.340;2023-02-26T11:49:38;3.85;;;3.65;;
485;SDS011;229;48.734;9.340;2023-02-26T11:52:15;4.30;;;4.00;;
485;SDS011;229;48.734;9.340;2023-02-26T11:54:43;3.45;;;3.25;;
485;SDS011;229;48.734;9.340;2023-02-26T11:57:15;4.20;;;3.50;;
485;SDS011;229;48.734;9.340;2023-02-26T11:59:43;3.50;;;3.30;;
485;SDS011;229;48.734;9.340;2023-02-26T12:02:14;4.20;;;3.95;;
485;SDS011;229;48.734;9.340;2023-02-26T12:04:43;5.13;;;4.00;;
485;SDS011;229;48.734;9.340;2023-02-26T12:07:11;7.18;;;3.58;;
485;SDS011;229;48.734;9.340;2023-02-26T12:09:39;4.10;;;3.90;;
485;SDS011;229;48.734;9.340;2023-02-26T12:12:09;3.55;;;3.35;;
485;SDS011;229;48.734;9.340;2023-02-26T12:14:46;3.28;;;3.08;;
485;SDS011;229;48.734;9.340;2023-02-26T12:17:20;3.60;;;3.40;;
485;SDS011;229;48.734;9.340;2023-02-26T12:19:51;3.97;;;3.78;;
485;SDS011;229;48.734;9.340;2023-02-26T12:22:24;3.75;;;3.55;;
485;SDS011;229;48.734;9.340;2023-02-26T12:25:06;3.35;;;3.15;;
485;SDS011;229;48.734;9.340;2023-02-26T12:27:41;3.90;;;3.70;;
485;SDS011;229;48.734;9.340;2023-02-26T12:30:23;3.10;;;2.90;;
485;SDS011;229;48.734;9.340;2023-02-26T12:32:58;3.58;;;3.38;;
485;SDS011;229;48.734;9.340;2023-02-26T12:35:32;4.95;;;3.70;;
485;SDS011;229;48.734;9.340;2023-02-26T12:38:06;4.05;;;3.55;;
485;SDS011;229;48.734;9.340;2023-02-26T12:40:48;3.53;;;3.33;;
485;SDS011;229;48.734;9.340;2023-02-26T12:43:19;3.30;;;3.10;;
485;SDS011;229;48.734;9.340;2023-02-26T12:45:52;3.70;;;3.50;;
485;SDS011;229;48.734;9.340;2023-02-26T12:48:31;3.83;;;3.63;;
485;SDS011;229;48.734;9.340;2023-02-26T12:51:03;4.22;;;3.95;;
485;SDS011;229;48.734;9.340;2023-02-26T12:53:39;3.40;;;3.20;;
485;SDS011;229;48.734;9.340;2023-02-26T12:56:22;3.85;;;3.65;;
485;SDS011;229;48.734;9.340;2023-02-26T13:01:39;3.28;;;3.08;;
485;SDS011;229;48.734;9.340;2023-02-26T13:04:15;3.33;;;3.13;;
485;SDS011;229;48.734;9.340;2023-02-26T13:06:48;3.53;;;3.33;;
485;SDS011;229;48.734;9.340;2023-02-26T13:09:23;3.30;;;3.10;;
485;SDS011;229;48.734;9.340;2023-02-26T13:11:56;3.40;;;3.20;;
485;SDS011;229;48.734;9.340;2023-02-26T13:14:28;3.30;;;3.10;;
485;SDS011;229;48.734;9.340;2023-02-26T13:17:02;3.80;;;3.60;;
485;SDS011;229;48.734;9.340;2023-02-26T13:19:33;3.75;;;3.13;;
485;SDS011;229;48.734;9.340;2023-02-26T13:22:04;3.33;;;3.13;;
485;SDS011;229;48.734;9.340;2023-02-26T13:24:33;3.30;;;3.10;;
485;SDS011;229;48.734;9.340;2023-02-26T13:27:01;3.50;;;3.30;;
485;SDS011;229;48.734;9.340;2023-02-26T13:29:29;3.70;;;3.25;;
485;SDS011;229;48.734;9.340;2023-02-26T13:31:59;3.83;;;3.63;;
485;SDS011;229;48.734;9.340;2023-02-26T13:34:32;3.45;;;3.25;;
485;SDS011;229;48.734;9.340;2023-02-26T13:37:01;3.70;;;3.53;;
485;SDS011;229;48.734;9.340;2023-02-26T13:39:35;3.30;;;3.10;;
485;SDS011;229;48.734;9.340;2023-02-26T13:42:08;6.05;;;3.50;;
485;SDS011;229;48.734;9.340;2023-02-26T13:44:39;6.03;;;4.30;;
485;SDS011;229;48.734;9.340;2023-02-26T13:49:54;3.92;;;3.25;;
485;SDS011;229;48.734;9.340;2023-02-26T13:52:26;3.45;;;3.25;;
485;SDS011;229;48.734;9.340;2023-02-26T13:54:54;3.40;;;3.20;;
485;SDS011;229;48.734;9.340;2023-02-26T13:57:33;12.43;;;8.80;;
485;SDS011;229;48.734;9.340;2023-02-26T14:00:05;3.22;;;3.03;;
485;SDS011;229;48.734;9.340;2023-02-26T14:02:46;3.75;;;3.28;;
485;SDS011;229;48.734;9.340;2023-02-26T14:05:34;3.15;;;2.70;;
485;SDS011;229;48.734;9.340;2023-02-26T14:10:53;3.35;;;3.15;;
485;SDS011;229;48.734;9.340;2023-02-26T14:13:21;2.80;;;2.60;;
485;SDS011;229;48.734;9.340;2023-02-26T14:15:49;3.22;;;3.03;;
485;SDS011;229;48.734;9.340;2023-02-26T14:18:19;3.10;;;2.90;;
485;SDS011;229;48.734;9.340;2023-02-26T14:20:49;3.10;;;2.90;;
485;SDS011;229;48.734;9.340;2023-02-26T14:23:23;4.05;;;3.10;;
485;SDS011;229;48.734;9.340;2023-02-26T14:25:55;3.00;;;2.80;;
485;SDS011;229;48.734;9.340;2023-02-26T14:28:32;3.38;;;3.17;;
485;SDS011;229;48.734;9.340;2023-02-26T14:31:07;3.33;;;3.13;;
485;SDS011;229;48.734;9.340;2023-02-26T14:33:37;3.10;;;2.90;;
485;SDS011;229;48.734;9.340;2023-02-26T14:36:09;3.40;;;3.20;;
485;SDS011;229;48.734;9.340;2023-02-26T14:38:40;3.50;;;3.30;;
485;SDS011;229;48.734;9.340;2023-02-26T14:41:11;3.22;;;3.03;;
485;SDS011;229;48.734;9.340;2023-02-26T14:43:43;3.20;;;3.00;;
485;SDS011;229;48.734;9.340;2023-02-26T14:46:11;3.10;;;2.90;;
485;SDS011;229;48.734;9.340;2023-02-26T14:48:39;3.50;;;3.30;;
485;SDS011;229;48.734;9.340;2023-02-26T14:51:11;3.47;;;3.28;;
485;SDS011;229;48.734;9.340;2023-02-26T14:53:56;3.50;;;3.30;;
485;SDS011;229;48.734;9.340;2023-02-26T14:56:28;3.40;;;3.20;;
485;SDS011;229;48.734;9.340;2023-02-26T14:59:07;3.60;;;3.40;;
485;SDS011;229;48.734;9.340;2023-02-26T15:01:42;3.50;;;3.35;;
485;SDS011;229;48.734;9.340;2023-02-26T15:04:19;5.50;;;3.40;;
485;SDS011;229;48.734;9.340;2023-02-26T15:07:02;3.90;;;3.70;;
485;SDS011;229;48.734;9.340;2023-02-26T15:09:36;3.53;;;3.33;;
485;SDS011;229;48.734;9.340;2023-02-26T15:12:20;3.95;;;3.75;;
485;SDS011;229;48.734;9.340;2023-02-26T15:15:02;3.70;;;3.50;;
485;SDS011;229;48.734;9.340;2023-02-26T15:17:42;3.50;;;3.30;;
485;SDS011;229;48.734;9.340;2023-02-26T15:20:15;3.33;;;3.13;;
485;SDS011;229;48.734;9.340;2023-02-26T15:22:50;3.50;;;3.30;;
485;SDS011;229;48.734;9.340;2023-02-26T15:25:23;5.75;;;4.05;;
485;SDS011;229;48.734;9.340;2023-02-26T15:27:51;3.80;;;3.60;;
485;SDS011;229;48.734;9.340;2023-02-26T15:30:19;3.72;;;3.50;;
485;SDS011;229;48.734;9.340;2023-02-26T15:32:46;12.18;;;9.30;;
485;SDS011;229;48.734;9.340;2023-02-26T15:35:14;5.70;;;3.50;;
485;SDS011;229;48.734;9.340;2023-02-26T15:37:42;3.90;;;3.75;;
485;SDS011;229;48.734;9.340;2023-02-26T15:40:12;3.60;;;3.40;;
485;SDS011;229;48.734;9.340;2023-02-26T15:42:40;3.70;;;3.50;;
485;SDS011;229;48.734;9.340;2023-02-26T15:45:11;3.78;;;3.58;;
485;SDS011;229;48.734;9.340;2023-02-26T15:47:39;4.10;;;3.90;;
485;SDS011;229;48.734;9.340;2023-02-26T15:50:06;3.65;;;3.45;;
485;SDS011;229;48.734;9.340;2023-02-26T15:52:34;4.03;;;3.83;;
485;SDS011;229;48.734;9.340;2023-02-26T15:55:02;3.58;;;3.42;;
485;SDS011;229;48.734;9.340;2023-02-26T15:57:31;5.10;;;4.35;;
485;SDS011;229;48.734;9.340;2023-02-26T16:00:03;3.85;;;3.65;;
485;SDS011;229;48.734;9.340;2023-02-26T16:02:32;3.90;;;3.70;;
485;SDS011;229;48.734;9.340;2023-02-26T16:05:00;4.00;;;3.80;;
485;SDS011;229;48.734;9.340;2023-02-26T16:07:27;3.53;;;3.33;;
485;SDS011;229;48.734;9.340;2023-02-26T16:09:55;3.88;;;3.67;;